Terminal Aerodrome Forecast
Issued by NWS Twin Cities, MN

Home | Current Version | Previous Version | Graphics & Text | Print | Product List | Glossary On
Versions: 1 2 3 4 5 6 7 8 9 10 11 12 13 14 15 16 17 18 19 20 21
000
FTUS43 KMPX 142337
TAFSTC
TAF
KSTC 142337Z 1500/1524 31010KT P6SM OVC022
     FM150300 31011KT P6SM BKN040
     FM150800 29007KT P6SM BKN030
     FM151200 29006KT P6SM -SHSN BKN025
     FM151600 VRB03KT P6SM OVC020
     FM152200 21006KT P6SM OVC020=

USA.gov is the U.S. government's official web portal to all federal, state and local government web resources and services.